sensor_id;sensor_type;location;lat;lon;timestamp;pressure;altitude;pressure_sealevel;temperature;humidity
10064;BME280;5071;52.360;13.134;2023-11-25T00:02:56;99506.88;;;0.51;100.00
10064;BME280;5071;52.360;13.134;2023-11-25T00:08:00;99514.72;;;0.51;100.00
10064;BME280;5071;52.360;13.134;2023-11-25T00:13:02;99522.47;;;0.43;100.00
10064;BME280;5071;52.360;13.134;2023-11-25T00:18:05;99538.09;;;0.38;100.00
10064;BME280;5071;52.360;13.134;2023-11-25T00:23:08;99538.13;;;0.45;100.00
10064;BME280;5071;52.360;13.134;2023-11-25T00:28:10;99545.00;;;0.33;100.00
10064;BME280;5071;52.360;13.134;2023-11-25T00:33:13;99563.25;;;0.30;100.00
10064;BME280;5071;52.360;13.134;2023-11-25T00:38:16;99573.72;;;0.33;100.00
10064;BME280;5071;52.360;13.134;2023-11-25T00:43:18;99576.41;;;0.43;100.00
10064;BME280;5071;52.360;13.134;2023-11-25T00:48:21;99595.41;;;0.29;100.00
10064;BME280;5071;52.360;13.134;2023-11-25T00:53:24;99606.78;;;0.33;100.00
10064;BME280;5071;52.360;13.134;2023-11-25T00:58:26;99604.94;;;0.23;100.00
10064;BME280;5071;52.360;13.134;2023-11-25T01:03:29;99606.63;;;0.19;100.00
10064;BME280;5071;52.360;13.134;2023-11-25T01:08:32;99616.19;;;0.17;100.00
10064;BME280;5071;52.360;13.134;2023-11-25T01:13:34;99625.00;;;0.31;100.00
10064;BME280;5071;52.360;13.134;2023-11-25T01:18:36;99643.97;;;0.16;100.00
10064;BME280;5071;52.360;13.134;2023-11-25T01:23:40;99651.06;;;0.25;100.00
10064;BME280;5071;52.360;13.134;2023-11-25T01:28:42;99658.00;;;0.26;100.00
10064;BME280;5071;52.360;13.134;2023-11-25T01:33:44;99667.56;;;0.26;100.00
10064;BME280;5071;52.360;13.134;2023-11-25T01:38:48;99677.94;;;0.18;100.00
10064;BME280;5071;52.360;13.134;2023-11-25T01:43:53;99681.56;;;0.31;100.00
10064;BME280;5071;52.360;13.134;2023-11-25T01:48:55;99679.09;;;0.45;100.00
10064;BME280;5071;52.360;13.134;2023-11-25T01:53:58;99693.16;;;0.56;100.00
10064;BME280;5071;52.360;13.134;2023-11-25T01:59:02;99701.25;;;0.79;100.00
10064;BME280;5071;52.360;13.134;2023-11-25T02:04:05;99693.44;;;0.84;100.00
10064;BME280;5071;52.360;13.134;2023-11-25T02:09:09;99683.13;;;0.94;100.00
10064;BME280;5071;52.360;13.134;2023-11-25T02:14:11;99669.16;;;0.95;100.00
10064;BME280;5071;52.360;13.134;2023-11-25T02:19:13;99677.94;;;1.02;100.00
10064;BME280;5071;52.360;13.134;2023-11-25T02:24:17;99683.13;;;0.99;100.00
10064;BME280;5071;52.360;13.134;2023-11-25T02:29:19;99684.94;;;1.05;100.00
10064;BME280;5071;52.360;13.134;2023-11-25T02:34:21;99696.34;;;1.16;100.00
10064;BME280;5071;52.360;13.134;2023-11-25T02:39:25;99714.59;;;1.08;100.00
10064;BME280;5071;52.360;13.134;2023-11-25T02:44:27;99712.84;;;1.09;100.00
10064;BME280;5071;52.360;13.134;2023-11-25T02:49:29;99718.06;;;1.09;100.00
10064;BME280;5071;52.360;13.134;2023-11-25T02:54:33;99728.63;;;1.16;100.00
10064;BME280;5071;52.360;13.134;2023-11-25T02:59:35;99728.63;;;1.20;100.00
10064;BME280;5071;52.360;13.134;2023-11-25T03:04:37;99740.84;;;1.21;100.00
10064;BME280;5071;52.360;13.134;2023-11-25T03:09:41;99745.25;;;1.29;100.00
10064;BME280;5071;52.360;13.134;2023-11-25T03:14:43;99749.66;;;1.32;100.00
10064;BME280;5071;52.360;13.134;2023-11-25T03:19:45;99740.97;;;1.36;100.00
10064;BME280;5071;52.360;13.134;2023-11-25T03:24:50;99742.78;;;1.46;100.00
10064;BME280;5071;52.360;13.134;2023-11-25T03:29:52;99760.13;;;1.35;100.00
10064;BME280;5071;52.360;13.134;2023-11-25T03:34:54;99774.13;;;1.40;100.00
10064;BME280;5071;52.360;13.134;2023-11-25T03:40:01;99766.41;;;1.54;100.00
10064;BME280;5071;52.360;13.134;2023-11-25T03:45:03;99760.25;;;1.47;100.00
10064;BME280;5071;52.360;13.134;2023-11-25T03:50:06;99769.03;;;1.52;100.00
10064;BME280;5071;52.360;13.134;2023-11-25T03:55:09;99787.38;;;1.60;100.00
10064;BME280;5071;52.360;13.134;2023-11-25T04:00:12;99796.00;;;1.48;100.00
10064;BME280;5071;52.360;13.134;2023-11-25T04:05:15;99788.22;;;1.58;100.00
10064;BME280;5071;52.360;13.134;2023-11-25T04:10:19;99790.94;;;1.65;100.00
10064;BME280;5071;52.360;13.134;2023-11-25T04:15:21;99798.69;;;1.58;100.00
10064;BME280;5071;52.360;13.134;2023-11-25T04:20:23;99800.47;;;1.62;100.00
10064;BME280;5071;52.360;13.134;2023-11-25T04:25:27;99812.63;;;1.57;100.00
10064;BME280;5071;52.360;13.134;2023-11-25T04:30:29;99804.88;;;1.70;100.00
10064;BME280;5071;52.360;13.134;2023-11-25T04:35:31;99812.66;;;1.60;100.00
10064;BME280;5071;52.360;13.134;2023-11-25T04:40:35;99812.69;;;1.63;100.00
10064;BME280;5071;52.360;13.134;2023-11-25T04:45:37;99815.28;;;1.60;100.00
10064;BME280;5071;52.360;13.134;2023-11-25T04:50:39;99821.31;;;1.52;100.00
10064;BME280;5071;52.360;13.134;2023-11-25T04:55:45;99820.38;;;1.47;100.00
10064;BME280;5071;52.360;13.134;2023-11-25T05:00:47;99827.25;;;1.36;100.00
10064;BME280;5071;52.360;13.134;2023-11-25T05:05:49;99834.25;;;1.37;100.00
10064;BME280;5071;52.360;13.134;2023-11-25T05:10:53;99843.00;;;1.42;100.00
10064;BME280;5071;52.360;13.134;2023-11-25T05:15:55;99846.41;;;1.36;100.00
10064;BME280;5071;52.360;13.134;2023-11-25T05:20:57;99849.06;;;1.38;100.00
10064;BME280;5071;52.360;13.134;2023-11-25T05:26:01;99854.06;;;1.15;100.00
10064;BME280;5071;52.360;13.134;2023-11-25T05:31:03;99864.53;;;1.16;100.00
10064;BME280;5071;52.360;13.134;2023-11-25T05:36:07;99876.53;;;1.02;100.00
10064;BME280;5071;52.360;13.134;2023-11-25T05:41:10;99892.94;;;0.89;100.00
10064;BME280;5071;52.360;13.134;2023-11-25T05:46:20;99898.88;;;0.78;100.00
10064;BME280;5071;52.360;13.134;2023-11-25T05:51:31;99894.41;;;0.70;100.00
10064;BME280;5071;52.360;13.134;2023-11-25T05:56:35;99900.31;;;0.55;100.00
10064;BME280;5071;52.360;13.134;2023-11-25T06:01:37;99902.28;;;0.71;100.00
10064;BME280;5071;52.360;13.134;2023-11-25T06:06:40;99895.22;;;0.67;100.00
10064;BME280;5071;52.360;13.134;2023-11-25T06:11:44;99898.72;;;0.66;100.00
10064;BME280;5071;52.360;13.134;2023-11-25T06:16:46;99893.25;;;0.49;100.00
10064;BME280;5071;52.360;13.134;2023-11-25T06:21:48;99889.88;;;0.58;100.00
10064;BME280;5071;52.360;13.134;2023-11-25T06:26:51;99898.75;;;0.69;100.00
10064;BME280;5071;52.360;13.134;2023-11-25T06:31:57;99895.06;;;0.55;100.00
10064;BME280;5071;52.360;13.134;2023-11-25T06:37:01;99894.94;;;0.46;100.00
10064;BME280;5071;52.360;13.134;2023-11-25T06:42:05;99902.63;;;0.36;100.00
10064;BME280;5071;52.360;13.134;2023-11-25T06:47:06;99900.31;;;0.55;100.00
10064;BME280;5071;52.360;13.134;2023-11-25T06:52:09;99907.09;;;0.44;100.00
10064;BME280;5071;52.360;13.134;2023-11-25T06:57:12;99902.63;;;0.36;100.00
10064;BME280;5071;52.360;13.134;2023-11-25T07:02:15;99903.53;;;0.38;100.00
10064;BME280;5071;52.360;13.134;2023-11-25T07:07:17;99912.28;;;0.42;100.00
10064;BME280;5071;52.360;13.134;2023-11-25T07:12:20;99913.25;;;0.49;100.00
10064;BME280;5071;52.360;13.134;2023-11-25T07:17:23;99916.00;;;0.58;100.00
10064;BME280;5071;52.360;13.134;2023-11-25T07:22:25;99906.59;;;0.68;100.00
10064;BME280;5071;52.360;13.134;2023-11-25T07:27:29;99904.75;;;0.64;100.00
10064;BME280;5071;52.360;13.134;2023-11-25T07:32:31;99902.97;;;0.60;100.00
10064;BME280;5071;52.360;13.134;2023-11-25T07:37:33;99893.38;;;0.60;100.00
10064;BME280;5071;52.360;13.134;2023-11-25T07:42:37;99901.91;;;0.47;100.00
10064;BME280;5071;52.360;13.134;2023-11-25T07:47:39;99907.09;;;0.44;100.00
10064;BME280;5071;52.360;13.134;2023-11-25T07:52:41;99905.41;;;0.47;100.00
10064;BME280;5071;52.360;13.134;2023-11-25T07:57:44;99904.50;;;0.45;100.00
10064;BME280;5071;52.360;13.134;2023-11-25T08:02:47;99910.94;;;0.70;100.00
10064;BME280;5071;52.360;13.134;2023-11-25T08:07:49;99906.72;;;0.80;100.00
10064;BME280;5071;52.360;13.134;2023-11-25T08:12:53;99909.59;;;0.99;100.00
10064;BME280;5071;52.360;13.134;2023-11-25T08:17:57;99913.53;;;1.36;98.42
10064;BME280;5071;52.360;13.134;2023-11-25T08:22:59;99908.47;;;1.51;96.53
10064;BME280;5071;52.360;13.134;2023-11-25T08:28:03;99905.56;;;2.11;95.45
10064;BME280;5071;52.360;13.134;2023-11-25T08:33:05;99902.34;;;2.49;92.00
10064;BME280;5071;52.360;13.134;2023-11-25T08:38:08;99904.81;;;2.26;92.21
10064;BME280;5071;52.360;13.134;2023-11-25T08:43:11;99920.78;;;2.61;92.06
10064;BME280;5071;52.360;13.134;2023-11-25T08:48:13;99916.47;;;2.76;91.01
10064;BME280;5071;52.360;13.134;2023-11-25T08:53:15;99916.69;;;3.19;89.99
10064;BME280;5071;52.360;13.134;2023-11-25T08:58:18;99914.97;;;3.18;88.48
10064;BME280;5071;52.360;13.134;2023-11-25T09:03:22;99918.38;;;2.97;89.14
10064;BME280;5071;52.360;13.134;2023-11-25T09:08:26;99916.69;;;3.19;88.83
10064;BME280;5071;52.360;13.134;2023-11-25T09:13:31;99914.22;;;3.60;87.78
10064;BME280;5071;52.360;13.134;2023-11-25T09:18:35;99912.53;;;3.90;88.60
10064;BME280;5071;52.360;13.134;2023-11-25T09:23:38;99897.66;;;4.27;85.31
10064;BME280;5071;52.360;13.134;2023-11-25T09:28:42;99895.91;;;4.23;85.96
10064;BME280;5071;52.360;13.134;2023-11-25T09:33:44;99903.78;;;4.00;88.14
10064;BME280;5071;52.360;13.134;2023-11-25T09:38:46;99895.03;;;4.14;87.37
10064;BME280;5071;52.360;13.134;2023-11-25T09:43:50;99897.66;;;3.91;89.47
10064;BME280;5071;52.360;13.134;2023-11-25T09:48:52;99894.13;;;3.67;91.18
10064;BME280;5071;52.360;13.134;2023-11-25T09:53:56;99890.59;;;3.62;91.76
10064;BME280;5071;52.360;13.134;2023-11-25T09:58:59;99887.91;;;3.36;92.47
10064;BME280;5071;52.360;13.134;2023-11-25T10:04:02;99877.44;;;3.34;93.84
10064;BME280;5071;52.360;13.134;2023-11-25T10:09:04;99863.50;;;3.63;93.19
10064;BME280;5071;52.360;13.134;2023-11-25T10:14:10;99867.00;;;3.80;92.00
10064;BME280;5071;52.360;13.134;2023-11-25T10:19:19;99855.66;;;3.87;93.14
10064;BME280;5071;52.360;13.134;2023-11-25T10:24:23;99859.13;;;4.05;91.33
10064;BME280;5071;52.360;13.134;2023-11-25T10:29:27;99846.91;;;4.10;90.60
10064;BME280;5071;52.360;13.134;2023-11-25T10:34:29;99848.63;;;4.33;91.04
10064;BME280;5071;52.360;13.134;2023-11-25T10:39:32;99854.75;;;4.35;91.23
10064;BME280;5071;52.360;13.134;2023-11-25T10:44:36;99851.25;;;3.80;93.77
10064;BME280;5071;52.360;13.134;2023-11-25T10:49:39;99848.66;;;3.89;94.89
10064;BME280;5071;52.360;13.134;2023-11-25T10:54:44;99851.22;;;3.40;96.80
10064;BME280;5071;52.360;13.134;2023-11-25T10:59:48;99851.09;;;3.05;99.81
10064;BME280;5071;52.360;13.134;2023-11-25T11:04:58;99857.78;;;2.46;100.00
10064;BME280;5071;52.360;13.134;2023-11-25T11:10:01;99856.69;;;2.13;100.00
10064;BME280;5071;52.360;13.134;2023-11-25T11:15:14;99853.16;;;2.05;100.00
10064;BME280;5071;52.360;13.134;2023-11-25T11:20:18;99850.53;;;2.03;100.00
10064;BME280;5071;52.360;13.134;2023-11-25T11:25:26;99847.91;;;2.02;100.00
10064;BME280;5071;52.360;13.134;2023-11-25T11:30:40;99830.34;;;1.88;100.00
10064;BME280;5071;52.360;13.134;2023-11-25T11:35:46;99841.00;;;2.13;100.00
10064;BME280;5071;52.360;13.134;2023-11-25T11:40:51;99845.38;;;2.16;100.00
10064;BME280;5071;52.360;13.134;2023-11-25T11:45:55;99836.72;;;2.26;100.00
10064;BME280;5071;52.360;13.134;2023-11-25T11:50:57;99841.94;;;2.24;100.00
10064;BME280;5071;52.360;13.134;2023-11-25T11:56:00;99831.53;;;2.33;100.00
10064;BME280;5071;52.360;13.134;2023-11-25T12:01:10;99830.78;;;2.56;100.00
10064;BME280;5071;52.360;13.134;2023-11-25T12:06:12;99829.03;;;2.53;100.00
10064;BME280;5071;52.360;13.134;2023-11-25T12:11:16;99821.22;;;2.63;100.00
10064;BME280;5071;52.360;13.134;2023-11-25T12:16:19;99827.19;;;2.36;100.00
10064;BME280;5071;52.360;13.134;2023-11-25T12:21:22;99823.72;;;2.37;100.00
10064;BME280;5071;52.360;13.134;2023-11-25T12:26:25;99828.16;;;2.50;100.00
10064;BME280;5071;52.360;13.134;2023-11-25T12:31:29;99820.31;;;2.58;100.00
10064;BME280;5071;52.360;13.134;2023-11-25T12:36:31;99820.38;;;2.65;100.00
10064;BME280;5071;52.360;13.134;2023-11-25T12:41:34;99816.06;;;2.83;100.00
10064;BME280;5071;52.360;13.134;2023-11-25T12:46:38;99827.25;;;2.48;100.00
10064;BME280;5071;52.360;13.134;2023-11-25T12:51:41;99826.34;;;2.43;100.00
10064;BME280;5071;52.360;13.134;2023-11-25T12:56:48;99818.47;;;2.37;100.00
10064;BME280;5071;52.360;13.134;2023-11-25T13:01:51;99824.63;;;2.49;100.00
10064;BME280;5071;52.360;13.134;2023-11-25T13:06:54;99831.50;;;2.30;100.00
10064;BME280;5071;52.360;13.134;2023-11-25T13:11:56;99833.88;;;1.92;100.00
10064;BME280;5071;52.360;13.134;2023-11-25T13:17:00;99821.50;;;1.75;100.00
10064;BME280;5071;52.360;13.134;2023-11-25T13:22:02;99831.88;;;1.65;100.00
10064;BME280;5071;52.360;13.134;2023-11-25T13:27:04;99823.06;;;1.53;100.00
10064;BME280;5071;52.360;13.134;2023-11-25T13:32:11;99826.72;;;1.72;100.00
10064;BME280;5071;52.360;13.134;2023-11-25T13:37:13;99833.63;;;1.64;100.00
10064;BME280;5071;52.360;13.134;2023-11-25T13:42:15;99845.03;;;1.74;100.00
10064;BME280;5071;52.360;13.134;2023-11-25T13:47:19;99824.91;;;1.64;100.00
10064;BME280;5071;52.360;13.134;2023-11-25T13:52:22;99826.72;;;1.74;100.00
10064;BME280;5071;52.360;13.134;2023-11-25T13:57:24;99819.72;;;1.70;100.00
10064;BME280;5071;52.360;13.134;2023-11-25T14:02:27;99821.25;;;1.46;100.00
10064;BME280;5071;52.360;13.134;2023-11-25T14:07:30;99822.97;;;1.43;100.00
10064;BME280;5071;52.360;13.134;2023-11-25T14:12:32;99821.25;;;1.46;100.00
10064;BME280;5071;52.360;13.134;2023-11-25T14:17:36;99831.53;;;1.28;100.00
10064;BME280;5071;52.360;13.134;2023-11-25T14:22:39;99844.78;;;1.45;100.00
10064;BME280;5071;52.360;13.134;2023-11-25T14:27:41;99850.84;;;1.44;100.00
10064;BME280;5071;52.360;13.134;2023-11-25T14:32:45;99865.63;;;1.39;100.00
10064;BME280;5071;52.360;13.134;2023-11-25T14:37:47;99865.78;;;1.54;100.00
10064;BME280;5071;52.360;13.134;2023-11-25T14:42:50;99857.78;;;1.37;100.00
10064;BME280;5071;52.360;13.134;2023-11-25T14:47:53;99874.34;;;1.39;100.00
10064;BME280;5071;52.360;13.134;2023-11-25T14:52:56;99864.50;;;1.18;100.00
10064;BME280;5071;52.360;13.134;2023-11-25T14:57:58;99871.53;;;1.21;100.00
10064;BME280;5071;52.360;13.134;2023-11-25T15:03:02;99870.03;;;1.41;100.00
10064;BME280;5071;52.360;13.134;2023-11-25T15:08:04;99881.38;;;1.43;100.00
10064;BME280;5071;52.360;13.134;2023-11-25T15:13:06;99898.00;;;1.48;100.00
10064;BME280;5071;52.360;13.134;2023-11-25T15:18:10;99892.66;;;1.41;100.00
10064;BME280;5071;52.360;13.134;2023-11-25T15:23:13;99897.91;;;1.42;100.00
10064;BME280;5071;52.360;13.134;2023-11-25T15:28:15;99907.63;;;1.55;100.00
10064;BME280;5071;52.360;13.134;2023-11-25T15:33:19;99918.00;;;1.48;100.00
10064;BME280;5071;52.360;13.134;2023-11-25T15:38:21;99917.09;;;1.43;100.00
10064;BME280;5071;52.360;13.134;2023-11-25T15:43:24;99912.81;;;1.51;100.00
10064;BME280;5071;52.360;13.134;2023-11-25T15:48:27;99916.34;;;1.54;100.00
10064;BME280;5071;52.360;13.134;2023-11-25T15:53:30;99922.47;;;1.57;100.00
10064;BME280;5071;52.360;13.134;2023-11-25T15:58:32;99939.75;;;1.42;100.00
10064;BME280;5071;52.360;13.134;2023-11-25T16:03:36;99925.00;;;1.49;100.00
10064;BME280;5071;52.360;13.134;2023-11-25T16:08:38;99943.34;;;1.53;100.00
10064;BME280;5071;52.360;13.134;2023-11-25T16:13:40;99949.50;;;1.54;100.00
10064;BME280;5071;52.360;13.134;2023-11-25T16:18:44;99966.91;;;1.55;100.00
10064;BME280;5071;52.360;13.134;2023-11-25T16:23:46;99965.97;;;1.47;100.00
10064;BME280;5071;52.360;13.134;2023-11-25T16:28:49;99977.25;;;1.44;100.00
10064;BME280;5071;52.360;13.134;2023-11-25T16:33:52;99979.88;;;1.46;100.00
10064;BME280;5071;52.360;13.134;2023-11-25T16:38:55;99986.91;;;1.48;100.00
10064;BME280;5071;52.360;13.134;2023-11-25T16:43:58;99992.19;;;1.53;100.00
10064;BME280;5071;52.360;13.134;2023-11-25T16:49:02;100004.34;;;1.49;100.00
10064;BME280;5071;52.360;13.134;2023-11-25T16:54:10;100006.88;;;1.43;100.00
10064;BME280;5071;52.360;13.134;2023-11-25T16:59:12;100017.47;;;1.52;100.00
10064;BME280;5071;52.360;13.134;2023-11-25T17:04:16;100016.69;;;1.60;100.00
10064;BME280;5071;52.360;13.134;2023-11-25T17:09:18;100024.69;;;1.73;100.00
10064;BME280;5071;52.360;13.134;2023-11-25T17:14:21;100036.75;;;1.62;100.00
10064;BME280;5071;52.360;13.134;2023-11-25T17:19:24;100045.47;;;1.63;100.00
10064;BME280;5071;52.360;13.134;2023-11-25T17:24:26;100039.41;;;1.67;100.00
10064;BME280;5071;52.360;13.134;2023-11-25T17:29:29;100048.94;;;1.63;100.00
10064;BME280;5071;52.360;13.134;2023-11-25T17:34:33;100053.19;;;1.53;100.00
10064;BME280;5071;52.360;13.134;2023-11-25T17:39:35;100058.41;;;1.50;100.00
10064;BME280;5071;52.360;13.134;2023-11-25T17:44:39;100062.03;;;1.62;100.00
10064;BME280;5071;52.360;13.134;2023-11-25T17:49:43;100087.09;;;1.46;100.00
10064;BME280;5071;52.360;13.134;2023-11-25T17:54:45;100095.09;;;1.57;100.00
10064;BME280;5071;52.360;13.134;2023-11-25T17:59:47;100093.50;;;1.68;100.00
10064;BME280;5071;52.360;13.134;2023-11-25T18:04:51;100092.38;;;1.49;100.00
10064;BME280;5071;52.360;13.134;2023-11-25T18:09:53;100109.00;;;1.52;100.00
10064;BME280;5071;52.360;13.134;2023-11-25T18:14:56;100128.22;;;1.58;100.00
10064;BME280;5071;52.360;13.134;2023-11-25T18:19:59;100133.50;;;1.61;100.00
10064;BME280;5071;52.360;13.134;2023-11-25T18:25:02;100137.41;;;1.90;100.00
10064;BME280;5071;52.360;13.134;2023-11-25T18:30:05;100146.19;;;1.96;100.00
10064;BME280;5071;52.360;13.134;2023-11-25T18:35:09;100146.03;;;1.83;100.00
10064;BME280;5071;52.360;13.134;2023-11-25T18:40:11;100157.44;;;1.88;100.00
10064;BME280;5071;52.360;13.134;2023-11-25T18:45:13;100158.28;;;1.87;100.00
10064;BME280;5071;52.360;13.134;2023-11-25T18:50:17;100168.53;;;1.72;100.00
10064;BME280;5071;52.360;13.134;2023-11-25T18:55:19;100172.56;;;1.48;100.00
10064;BME280;5071;52.360;13.134;2023-11-25T19:00:21;100169.81;;;1.41;100.00
10064;BME280;5071;52.360;13.134;2023-11-25T19:05:24;100197.38;;;1.20;100.00
10064;BME280;5071;52.360;13.134;2023-11-25T19:10:26;100190.13;;;1.02;100.00
10064;BME280;5071;52.360;13.134;2023-11-25T19:15:28;100196.81;;;0.88;100.00
10064;BME280;5071;52.360;13.134;2023-11-25T19:20:31;100208.06;;;0.84;100.00
10064;BME280;5071;52.360;13.134;2023-11-25T19:25:33;100228.53;;;0.61;100.00
10064;BME280;5071;52.360;13.134;2023-11-25T19:30:35;100227.22;;;0.38;100.00
10064;BME280;5071;52.360;13.134;2023-11-25T19:35:38;100242.56;;;0.23;100.00
10064;BME280;5071;52.360;13.134;2023-11-25T19:40:40;100243.28;;;0.16;100.00
10064;BME280;5071;52.360;13.134;2023-11-25T19:45:42;100245.41;;;-0.06;100.00
10064;BME280;5071;52.360;13.134;2023-11-25T19:50:46;100238.81;;;-0.29;100.00
10064;BME280;5071;52.360;13.134;2023-11-25T19:55:47;100251.00;;;-0.27;100.00
10064;BME280;5071;52.360;13.134;2023-11-25T20:00:49;100253.88;;;-0.16;100.00
10064;BME280;5071;52.360;13.134;2023-11-25T20:06:00;100262.69;;;-0.11;100.00
10064;BME280;5071;52.360;13.134;2023-11-25T20:11:02;100275.44;;;0.15;100.00
10064;BME280;5071;52.360;13.134;2023-11-25T20:16:05;100267.81;;;0.24;100.00
10064;BME280;5071;52.360;13.134;2023-11-25T20:21:08;100276.53;;;0.26;100.00
10064;BME280;5071;52.360;13.134;2023-11-25T20:26:10;100283.81;;;0.40;100.00
10064;BME280;5071;52.360;13.134;2023-11-25T20:31:12;100296.91;;;0.43;100.00
10064;BME280;5071;52.360;13.134;2023-11-25T20:36:16;100315.19;;;0.43;100.00
10064;BME280;5071;52.360;13.134;2023-11-25T20:41:18;100321.41;;;0.48;100.00
10064;BME280;5071;52.360;13.134;2023-11-25T20:46:20;100319.72;;;0.50;100.00
10064;BME280;5071;52.360;13.134;2023-11-25T20:51:24;100331.28;;;0.61;100.00
10064;BME280;5071;52.360;13.134;2023-11-25T20:56:25;100330.41;;;0.61;100.00
10064;BME280;5071;52.360;13.134;2023-11-25T21:01:27;100343.72;;;0.74;100.00
10064;BME280;5071;52.360;13.134;2023-11-25T21:06:31;100341.63;;;0.58;100.00
10064;BME280;5071;52.360;13.134;2023-11-25T21:11:33;100342.28;;;0.89;100.00
10064;BME280;5071;52.360;13.134;2023-11-25T21:16:35;100345.47;;;0.74;100.00
10064;BME280;5071;52.360;13.134;2023-11-25T21:21:38;100347.44;;;0.86;100.00
10064;BME280;5071;52.360;13.134;2023-11-25T21:26:41;100355.09;;;0.76;100.00
10064;BME280;5071;52.360;13.134;2023-11-25T21:31:42;100359.44;;;0.76;100.00
10064;BME280;5071;52.360;13.134;2023-11-25T21:36:46;100365.69;;;0.83;100.00
10064;BME280;5071;52.360;13.134;2023-11-25T21:41:48;100380.97;;;1.05;100.00
10064;BME280;5071;52.360;13.134;2023-11-25T21:46:50;100371.03;;;0.89;100.00
10064;BME280;5071;52.360;13.134;2023-11-25T21:51:54;100374.38;;;0.82;100.00
10064;BME280;5071;52.360;13.134;2023-11-25T21:56:56;100375.19;;;0.79;100.00
10064;BME280;5071;52.360;13.134;2023-11-25T22:01:58;100378.00;;;0.90;100.00
10064;BME280;5071;52.360;13.134;2023-11-25T22:07:03;100388.22;;;0.77;100.00
10064;BME280;5071;52.360;13.134;2023-11-25T22:12:06;100395.59;;;0.97;100.00
10064;BME280;5071;52.360;13.134;2023-11-25T22:17:08;100395.16;;;0.75;100.00
10064;BME280;5071;52.360;13.134;2023-11-25T22:22:11;100393.13;;;0.62;100.00
10064;BME280;5071;52.360;13.134;2023-11-25T22:27:13;100389.63;;;0.63;100.00
10064;BME280;5071;52.360;13.134;2023-11-25T22:32:15;100399.94;;;0.57;100.00
10064;BME280;5071;52.360;13.134;2023-11-25T22:37:19;100411.47;;;0.67;100.00
10064;BME280;5071;52.360;13.134;2023-11-25T22:42:21;100402.53;;;0.55;100.00
10064;BME280;5071;52.360;13.134;2023-11-25T22:47:24;100394.22;;;0.73;100.00
10064;BME280;5071;52.360;13.134;2023-11-25T22:52:27;100389.63;;;0.63;100.00
10064;BME280;5071;52.360;13.134;2023-11-25T22:57:29;100411.75;;;0.41;100.00
10064;BME280;5071;52.360;13.134;2023-11-25T23:02:31;100412.91;;;0.16;100.00
10064;BME280;5071;52.360;13.134;2023-11-25T23:07:34;100426.47;;;0.36;100.00
10064;BME280;5071;52.360;13.134;2023-11-25T23:12:36;100428.16;;;0.34;100.00
10064;BME280;5071;52.360;13.134;2023-11-25T23:17:38;100438.38;;;0.26;100.00
10064;BME280;5071;52.360;13.134;2023-11-25T23:22:42;100436.59;;;0.24;100.00
10064;BME280;5071;52.360;13.134;2023-11-25T23:27:44;100433.94;;;0.58;100.00
10064;BME280;5071;52.360;13.134;2023-11-25T23:32:46;100434.81;;;0.59;100.00
10064;BME280;5071;52.360;13.134;2023-11-25T23:37:50;100441.59;;;0.51;100.00
10064;BME280;5071;52.360;13.134;2023-11-25T23:42:52;100444.13;;;0.48;100.00
10064;BME280;5071;52.360;13.134;2023-11-25T23:47:54;100445.47;;;0.68;100.00
10064;BME280;5071;52.360;13.134;2023-11-25T23:52:58;100462.09;;;0.35;100.00
10064;BME280;5071;52.360;13.134;2023-11-25T23:58:00;100469.25;;;0.43;100.00
